createdAt,value
2019-04-20T00:00:17.031Z,61.8158
2019-04-20T00:01:05.221Z,57.7173
2019-04-20T00:01:52.709Z,56.8307
2019-04-20T00:02:44.062Z,61.2421
2019-04-20T00:03:39.050Z,60.2869
2019-04-20T00:04:29.006Z,59.5636
2019-04-20T00:05:17.130Z,58.3322
2019-04-20T00:06:03.586Z,59.1470
2019-04-20T00:06:52.827Z,59.1928
2019-04-20T00:07:41.832Z,57.6761
2019-04-20T00:08:32.805Z,55.2224
2019-04-20T00:09:24.692Z,54.3435
2019-04-20T00:10:16.993Z,54.2992
2019-04-20T00:11:10.673Z,57.1786
2019-04-20T00:12:03.876Z,57.0092
2019-04-20T00:12:59.708Z,58.5657
2019-04-20T00:13:48.720Z,61.6541
2019-04-20T00:14:33.800Z,61.8982
2019-04-20T00:15:22.138Z,59.1882
2019-04-20T00:16:08.552Z,60.0290
2019-04-20T00:16:55.054Z,60.2945
2019-04-20T00:17:50.842Z,60.5051
2019-04-20T00:18:41.296Z,60.9369
2019-04-20T00:19:32.227Z,60.2579
2019-04-20T00:20:23.516Z,60.0107
2019-04-20T00:21:12.596Z,57.9889
2019-04-20T00:22:06.227Z,60.0885
2019-04-20T00:22:54.099Z,62.4323
2019-04-20T00:23:45.203Z,60.4334
2019-04-20T00:24:36.918Z,64.7959
2019-04-20T00:25:38.614Z,66.8818
2019-04-20T00:26:32.306Z,67.9026
2019-04-20T00:27:32.870Z,66.2364
2019-04-20T00:28:19.482Z,63.0594
2019-04-20T00:29:14.341Z,62.7253
2019-04-20T00:29:58.711Z,61.8387
2019-04-20T00:30:53.323Z,62.4887
2019-04-20T00:31:43.069Z,63.6957
2019-04-20T00:32:39.683Z,66.6484
2019-04-20T00:33:27.110Z,66.9200
2019-04-20T00:34:11.969Z,62.7573
2019-04-20T00:34:55.886Z,61.0468
2019-04-20T00:35:42.269Z,60.6714
2019-04-20T00:36:29.090Z,61.1597
2019-04-20T00:37:16.993Z,64.0116
2019-04-20T00:38:03.460Z,61.7288
2019-04-20T00:38:50.042Z,63.2395
2019-04-20T00:39:36.019Z,62.9557
2019-04-20T00:40:23.686Z,63.4867
2019-04-20T00:41:13.684Z,62.9328
2019-04-20T00:42:06.559Z,60.2808
2019-04-20T00:42:57.963Z,59.0417
2019-04-20T00:43:47.183Z,63.8331
2019-04-20T00:44:38.105Z,63.2929
2019-04-20T00:45:30.568Z,62.2553
2019-04-20T00:46:26.434Z,60.0153
2019-04-20T00:47:22.967Z,60.0946
2019-04-20T00:48:07.985Z,59.6399
2019-04-20T00:49:01.641Z,58.8708
2019-04-20T00:49:58.028Z,57.6577
2019-04-20T00:50:48.722Z,56.4965
2019-04-20T00:51:45.551Z,56.8795
2019-04-20T00:52:33.125Z,57.6165
2019-04-20T00:53:20.410Z,57.2824
2019-04-20T00:54:03.993Z,57.5525
2019-04-20T00:54:51.803Z,58.4192
2019-04-20T00:55:38.130Z,57.1054
2019-04-20T00:56:24.560Z,55.6023
2019-04-20T00:57:20.336Z,55.2361
2019-04-20T00:58:13.309Z,56.2203
2019-04-20T00:59:12.010Z,57.9965
2019-04-20T01:00:09.287Z,59.2386
2019-04-20T01:01:04.089Z,58.1842
2019-04-20T01:01:47.578Z,57.1725
2019-04-20T01:02:37.106Z,55.8236
2019-04-20T01:03:29.213Z,55.0546
2019-04-20T01:04:20.304Z,55.7763
2019-04-20T01:05:11.016Z,55.6313
2019-04-20T01:06:09.717Z,56.2173
2019-04-20T01:06:53.908Z,58.7106
2019-04-20T01:07:39.522Z,61.1933
2019-04-20T01:08:23.366Z,56.8719
2019-04-20T01:09:09.967Z,59.7681
2019-04-20T01:09:56.379Z,58.9944
2019-04-20T01:10:47.224Z,55.6573
2019-04-20T01:11:39.797Z,62.6612
2019-04-20T01:12:31.406Z,61.2787
2019-04-20T01:13:22.849Z,56.1517
2019-04-20T01:14:12.823Z,61.3535
2019-04-20T01:15:05.875Z,62.0157
2019-04-20T01:16:01.003Z,59.6719
2019-04-20T01:16:52.930Z,56.8078
2019-04-20T01:17:37.969Z,56.0296
2019-04-20T01:18:27.837Z,56.3851
2019-04-20T01:19:15.818Z,55.1949
2019-04-20T01:20:04.518Z,60.4929
2019-04-20T01:20:51.497Z,60.5280
2019-04-20T01:21:38.362Z,60.6012
2019-04-20T01:22:28.362Z,61.1704
2019-04-20T01:23:19.417Z,60.5646
2019-04-20T01:24:08.842Z,58.2940
2019-04-20T01:25:06.582Z,61.2238
2019-04-20T01:25:55.824Z,63.0732
2019-04-20T01:26:43.688Z,63.2197
2019-04-20T01:27:51.521Z,62.2995
2019-04-20T01:28:37.300Z,64.9882
2019-04-20T01:29:26.152Z,62.7405
2019-04-20T01:30:17.422Z,59.1836
2019-04-20T01:31:16.599Z,59.2706
2019-04-20T01:32:06.160Z,60.8087
2019-04-20T01:33:12.495Z,56.2219
2019-04-20T01:33:46.154Z,61.1551
2019-04-20T01:34:41.414Z,63.7232
2019-04-20T01:35:35.614Z,63.2258
2019-04-20T01:36:32.995Z,64.1230
2019-04-20T01:37:17.908Z,64.8875
2019-04-20T01:38:11.290Z,65.3895
2019-04-20T01:38:59.918Z,67.5822
2019-04-20T01:39:43.191Z,64.4831
2019-04-20T01:40:27.852Z,63.8697
2019-04-20T01:41:16.127Z,65.3864
2019-04-20T01:42:04.469Z,64.7410
2019-04-20T01:42:51.275Z,59.6216
2019-04-20T01:43:37.599Z,58.6099
2019-04-20T01:44:31.728Z,63.5096
2019-04-20T01:45:23.498Z,58.9715
2019-04-20T01:46:14.692Z,62.9816
2019-04-20T01:47:03.162Z,64.0711
2019-04-20T01:47:55.868Z,64.5335
2019-04-20T01:48:44.620Z,65.4414
2019-04-20T01:49:33.925Z,64.4938
2019-04-20T01:50:27.584Z,63.6240
2019-04-20T01:51:21.212Z,65.3666
2019-04-20T01:52:16.285Z,65.7847
2019-04-20T01:53:09.979Z,65.0645
2019-04-20T01:55:10.245Z,66.3417
2019-04-20T01:55:53.054Z,67.3274
2019-04-20T01:56:40.470Z,69.3904
2019-04-20T01:57:26.162Z,62.9694
2019-04-20T01:58:30.204Z,64.4938
2019-04-20T01:59:16.373Z,64.0131
2019-04-20T02:00:05.313Z,65.2338
2019-04-20T02:00:48.109Z,67.9759
2019-04-20T02:01:40.549Z,65.8579
2019-04-20T02:02:29.569Z,65.4444
2019-04-20T02:03:17.191Z,60.8133
2019-04-20T02:04:05.501Z,62.3056
2019-04-20T02:04:58.861Z,62.0294
2019-04-20T02:05:53.031Z,62.4552
2019-04-20T02:06:44.381Z,65.3819
2019-04-20T02:07:35.491Z,69.6010
2019-04-20T02:08:24.315Z,69.7520
2019-04-20T02:09:18.660Z,70.4112
2019-04-20T02:10:08.314Z,71.6060
2019-04-20T02:10:59.218Z,69.4865
2019-04-20T02:11:51.791Z,62.1225
2019-04-20T02:12:40.866Z,63.0976
2019-04-20T02:13:36.165Z,64.4617
2019-04-20T02:14:28.705Z,65.9998
2019-04-20T02:15:22.127Z,68.4794
2019-04-20T02:16:14.497Z,69.7841
2019-04-20T02:17:08.645Z,64.4526
2019-04-20T02:18:03.346Z,62.4735
2019-04-20T02:18:53.856Z,63.8621
2019-04-20T02:19:52.428Z,59.4125
2019-04-20T02:20:45.865Z,67.5242
2019-04-20T02:21:34.283Z,65.2674
2019-04-20T02:22:26.222Z,65.0523
2019-04-20T02:23:10.585Z,64.0543
2019-04-20T02:23:57.353Z,64.6525
2019-04-20T02:24:42.615Z,63.6744
2019-04-20T02:25:29.139Z,63.4821
2019-04-20T02:26:15.986Z,65.0965
2019-04-20T02:27:02.389Z,61.4267
2019-04-20T02:27:54.946Z,55.2407
2019-04-20T02:29:07.708Z,62.9923
2019-04-20T02:29:50.259Z,61.4984
2019-04-20T02:31:23.090Z,64.6113
2019-04-20T02:32:06.648Z,63.0594
2019-04-20T02:32:36.273Z,65.8015
2019-04-20T02:33:42.464Z,69.2485
2019-04-20T02:34:28.513Z,65.3086
2019-04-20T02:35:36.712Z,70.5577
2019-04-20T02:36:20.858Z,70.5776
2019-04-20T02:37:08.879Z,67.0466
2019-04-20T02:39:05.193Z,69.6300
2019-04-20T02:40:47.535Z,67.2663
2019-04-20T02:41:18.120Z,71.7433
2019-04-20T02:44:09.886Z,71.3375
2019-04-20T02:44:50.023Z,70.6233
2019-04-20T02:46:34.629Z,71.2581
2019-04-20T02:47:35.046Z,70.9117
2019-04-20T02:48:14.062Z,68.9113
2019-04-20T02:49:10.120Z,69.8207
2019-04-20T02:49:59.180Z,72.9854
2019-04-20T02:50:50.191Z,72.2377
2019-04-20T02:51:47.623Z,73.9452
2019-04-20T02:52:38.217Z,72.1599
2019-04-20T02:53:33.029Z,66.7124
2019-04-20T02:55:14.515Z,69.1432
2019-04-20T02:56:06.606Z,68.4535
2019-04-20T02:57:00.659Z,75.0790
2019-04-20T02:58:41.961Z,73.8277
2019-04-20T03:01:07.078Z,73.8552
2019-04-20T03:01:53.491Z,75.1919
2019-04-20T03:02:41.189Z,77.3220
2019-04-20T03:03:26.738Z,76.6842
2019-04-20T03:04:20.286Z,74.1283
2019-04-20T03:05:13.676Z,72.6741
2019-04-20T03:06:04.452Z,72.1660
2019-04-20T03:06:59.392Z,68.6259
2019-04-20T03:07:57.616Z,70.4082
2019-04-20T03:08:47.573Z,73.3242
2019-04-20T03:09:39.986Z,73.3639
2019-04-20T03:10:34.278Z,75.6130
2019-04-20T03:11:32.496Z,74.8699
2019-04-20T03:12:18.742Z,70.5211
2019-04-20T03:13:09.803Z,75.5230
2019-04-20T03:13:57.816Z,71.6945
2019-04-20T03:14:44.742Z,68.8655
2019-04-20T03:15:41.805Z,68.1865
2019-04-20T03:16:31.661Z,66.9825
2019-04-20T03:17:27.262Z,70.7134
2019-04-20T03:18:13.882Z,70.0542
2019-04-20T03:19:03.053Z,70.0420
2019-04-20T03:19:52.539Z,68.2795
2019-04-20T03:20:53.423Z,75.4757
2019-04-20T03:21:47.948Z,72.3659
2019-04-20T03:23:01.068Z,70.9483
2019-04-20T03:23:31.168Z,66.0487
2019-04-20T03:24:26.591Z,70.0587
2019-04-20T03:25:13.540Z,66.4439
2019-04-20T03:26:05.389Z,67.2999
2019-04-20T03:26:54.646Z,66.1585
2019-04-20T03:27:41.451Z,66.2699
2019-04-20T03:28:36.811Z,69.2409
2019-04-20T03:29:23.794Z,64.9226
2019-04-20T03:31:07.458Z,68.4932
2019-04-20T03:33:12.637Z,62.0127
2019-04-20T03:34:13.373Z,64.9928
2019-04-20T03:35:00.834Z,63.5096
2019-04-20T03:35:34.255Z,63.2792
2019-04-20T03:36:34.972Z,65.4871
2019-04-20T03:37:26.734Z,66.0410
2019-04-20T03:38:10.665Z,61.5442
2019-04-20T03:38:57.393Z,61.9608
2019-04-20T03:39:51.434Z,62.8824
2019-04-20T03:40:37.332Z,65.2522
2019-04-20T03:41:25.485Z,62.9099
2019-04-20T03:42:09.337Z,61.5167
2019-04-20T03:42:56.984Z,65.0202
2019-04-20T03:43:45.684Z,62.5605
2019-04-20T03:44:34.202Z,68.2155
2019-04-20T03:45:25.412Z,65.0919
2019-04-20T03:46:17.427Z,67.0665
2019-04-20T03:47:08.799Z,70.0374
2019-04-20T03:48:11.588Z,68.1468
2019-04-20T03:49:05.899Z,68.7678
2019-04-20T03:50:02.631Z,66.4073
2019-04-20T03:50:53.272Z,65.0919
2019-04-20T03:51:46.967Z,62.2415
2019-04-20T03:52:34.273Z,61.7456
2019-04-20T03:53:29.806Z,61.2879
2019-04-20T03:54:13.537Z,61.8112
2019-04-20T03:55:12.836Z,59.4354
2019-04-20T03:55:58.448Z,59.5621
2019-04-20T03:56:49.579Z,61.0315
2019-04-20T03:57:49.790Z,62.8855
2019-04-20T03:58:33.521Z,65.9174
2019-04-20T03:59:21.268Z,60.4791
2019-04-20T04:00:16.304Z,64.8081
2019-04-20T04:01:12.641Z,65.3391
2019-04-20T04:03:09.352Z,66.6957
2019-04-20T04:03:53.262Z,60.4456
2019-04-20T04:04:39.074Z,60.7492
2019-04-20T04:05:27.534Z,59.3698
2019-04-20T04:06:12.923Z,66.4714
2019-04-20T04:06:57.735Z,59.3759
2019-04-20T04:07:55.872Z,66.2501
2019-04-20T04:08:36.431Z,57.4838
2019-04-20T04:09:30.538Z,60.7935
2019-04-20T04:10:25.892Z,58.9349
2019-04-20T04:11:21.857Z,64.1367
2019-04-20T04:12:10.110Z,62.9358
2019-04-20T04:12:49.830Z,59.2248
2019-04-20T04:13:39.762Z,62.0035
2019-04-20T04:14:26.145Z,60.1068
2019-04-20T04:15:12.709Z,59.7681
2019-04-20T04:16:06.107Z,61.5991
2019-04-20T04:16:54.721Z,64.5029
2019-04-20T04:17:44.995Z,54.4808
2019-04-20T04:18:39.483Z,56.9116
2019-04-20T04:19:30.236Z,58.0194
2019-04-20T04:20:19.711Z,56.5408
2019-04-20T04:21:12.885Z,58.1613
2019-04-20T04:22:12.619Z,61.7929
2019-04-20T04:23:10.479Z,61.6587
2019-04-20T04:23:58.792Z,61.0040
2019-04-20T04:24:52.177Z,60.8042
2019-04-20T04:25:42.743Z,62.7451
2019-04-20T04:26:34.163Z,58.9624
2019-04-20T04:27:33.598Z,61.2802
2019-04-20T04:28:13.767Z,62.0722
2019-04-20T04:29:13.559Z,54.6426
2019-04-20T04:30:04.306Z,56.8490
2019-04-20T04:30:58.132Z,56.9436
2019-04-20T04:31:59.538Z,55.8785
2019-04-20T04:33:03.101Z,65.5314
2019-04-20T04:34:22.914Z,65.0095
2019-04-20T04:35:10.623Z,65.1163
2019-04-20T04:36:00.372Z,63.6561
2019-04-20T04:36:59.347Z,64.1398
2019-04-20T04:37:47.118Z,64.1352
2019-04-20T04:38:42.464Z,61.6770
2019-04-20T04:39:30.920Z,63.4180
2019-04-20T04:40:36.979Z,62.1225
2019-04-20T04:41:27.086Z,65.1789
2019-04-20T04:42:11.572Z,61.9532
2019-04-20T04:42:57.891Z,69.5109
2019-04-20T04:43:49.445Z,66.2882
2019-04-20T04:44:34.333Z,62.5422
2019-04-20T04:45:15.509Z,62.6902
2019-04-20T04:46:04.219Z,63.8895
2019-04-20T04:46:57.586Z,61.4679
2019-04-20T04:47:42.908Z,63.7339
2019-04-20T04:48:35.010Z,70.5821
2019-04-20T04:49:28.440Z,62.1805
2019-04-20T04:50:17.566Z,68.6366
2019-04-20T04:51:12.880Z,61.2436
2019-04-20T04:52:05.197Z,61.5351
2019-04-20T04:52:58.848Z,62.5467
2019-04-20T04:53:47.955Z,62.0905
2019-04-20T04:54:42.281Z,60.8316
2019-04-20T04:55:34.810Z,60.3952
2019-04-20T04:56:18.065Z,64.8447
2019-04-20T04:57:05.339Z,64.6815
2019-04-20T04:57:51.601Z,62.6383
2019-04-20T04:58:38.491Z,67.8630
2019-04-20T04:59:25.690Z,71.2718
2019-04-20T05:00:17.939Z,68.0003
2019-04-20T05:01:08.080Z,67.4128
2019-04-20T05:01:58.152Z,65.3635
2019-04-20T05:02:50.592Z,63.6362
2019-04-20T05:04:48.531Z,63.9445
2019-04-20T05:05:35.964Z,68.7816
2019-04-20T05:06:29.221Z,61.9211
2019-04-20T05:07:15.190Z,66.5110
2019-04-20T05:08:02.748Z,62.0569
2019-04-20T05:08:51.445Z,63.0503
2019-04-20T05:09:39.846Z,66.7994
2019-04-20T05:10:28.677Z,61.4771
2019-04-20T05:11:15.310Z,63.9200
2019-04-20T05:12:07.247Z,63.9246
2019-04-20T05:12:54.782Z,62.1912
2019-04-20T05:13:50.053Z,59.5895
2019-04-20T05:14:46.060Z,61.5259
2019-04-20T05:15:41.734Z,60.2960
2019-04-20T05:16:39.830Z,61.6785
2019-04-20T05:17:32.392Z,65.8076
2019-04-20T05:18:19.484Z,67.3350
2019-04-20T05:19:15.890Z,68.6412
2019-04-20T05:20:02.594Z,68.8045
2019-04-20T05:21:00.312Z,69.2546
2019-04-20T05:21:57.439Z,70.0008
2019-04-20T05:22:41.662Z,68.9021
2019-04-20T05:23:24.308Z,72.7932
2019-04-20T05:24:20.768Z,73.8415
2019-04-20T05:25:11.928Z,75.1598
2019-04-20T05:26:08.488Z,75.4910
2019-04-20T05:27:01.738Z,77.0062
2019-04-20T05:27:51.871Z,77.7096
2019-04-20T05:28:33.435Z,76.9680
2019-04-20T05:29:19.688Z,74.1527
2019-04-20T05:30:05.695Z,74.8531
2019-04-20T05:30:57.622Z,70.3105
2019-04-20T05:31:49.391Z,76.4431
2019-04-20T05:32:44.596Z,77.5082
2019-04-20T05:33:42.320Z,79.5224
2019-04-20T05:34:40.056Z,79.2264
2019-04-20T05:35:33.636Z,75.2850
2019-04-20T05:36:19.302Z,74.8287
2019-04-20T05:37:20.943Z,73.4920
2019-04-20T05:38:11.923Z,74.3252
2019-04-20T05:38:58.223Z,74.0108
2019-04-20T05:39:50.122Z,72.2927
2019-04-20T05:40:39.026Z,71.6304
2019-04-20T05:41:29.462Z,75.8602
2019-04-20T05:42:23.434Z,75.3841
2019-04-20T05:43:10.674Z,76.0159
2019-04-20T05:44:02.107Z,77.9492
2019-04-20T05:44:55.936Z,80.2289
2019-04-20T05:45:45.345Z,81.1948
2019-04-20T05:46:40.940Z,82.3056
2019-04-20T05:47:33.460Z,80.8087
2019-04-20T05:48:19.701Z,81.4542
2019-04-20T05:49:20.683Z,81.0346
2019-04-20T05:50:01.013Z,79.7971
2019-04-20T05:50:58.729Z,77.4395
2019-04-20T05:51:49.905Z,79.8886
2019-04-20T05:52:50.207Z,78.9639
2019-04-20T05:53:33.973Z,78.8327
2019-04-20T05:54:31.096Z,77.2168
2019-04-20T05:55:20.921Z,78.8083
2019-04-20T05:56:07.296Z,75.8846
2019-04-20T05:57:07.744Z,79.1379
2019-04-20T05:58:00.707Z,79.0188
2019-04-20T05:58:45.050Z,78.8861
2019-04-20T05:59:45.412Z,78.3154
2019-04-20T06:00:33.561Z,78.6297
2019-04-20T06:01:20.224Z,78.6954
2019-04-20T06:02:15.998Z,78.1048
2019-04-20T06:03:01.724Z,77.9751
2019-04-20T06:03:53.873Z,78.4833
2019-04-20T06:05:01.799Z,77.9889
2019-04-20T06:05:48.877Z,77.3907
2019-04-20T06:06:33.147Z,76.4416
2019-04-20T06:07:25.205Z,76.0204
2019-04-20T06:08:15.601Z,77.0596
2019-04-20T06:09:11.074Z,77.7966
2019-04-20T06:09:59.671Z,77.3480
2019-04-20T06:10:52.146Z,76.7391
2019-04-20T06:11:44.211Z,76.2493
2019-04-20T06:12:35.751Z,76.3592
2019-04-20T06:13:17.362Z,77.1557
2019-04-20T06:14:07.034Z,76.7132
2019-04-20T06:15:05.585Z,76.1364
2019-04-20T06:15:53.958Z,78.2452
2019-04-20T06:16:56.929Z,78.2055
2019-04-20T06:17:46.199Z,76.5713
2019-04-20T06:18:32.736Z,77.2763
2019-04-20T06:19:39.548Z,78.3871
2019-04-20T06:20:21.538Z,79.5834
2019-04-20T06:21:23.509Z,75.9380
2019-04-20T06:22:04.695Z,75.4711
2019-04-20T06:23:01.346Z,76.8048
2019-04-20T06:23:53.202Z,76.0342
2019-04-20T06:24:44.904Z,74.3542
2019-04-20T06:25:54.818Z,76.3516
2019-04-20T06:27:11.044Z,74.0841
2019-04-20T06:28:02.066Z,74.3664
2019-04-20T06:28:49.012Z,74.8806
2019-04-20T06:29:48.360Z,77.4350
2019-04-20T06:30:30.893Z,75.1522
2019-04-20T06:31:34.182Z,74.7021
2019-04-20T06:32:21.487Z,76.7269
2019-04-20T06:33:26.267Z,77.1557
2019-04-20T06:34:20.136Z,74.6746
2019-04-20T06:35:00.546Z,79.0417
2019-04-20T06:36:48.589Z,63.7705
2019-04-20T06:37:36.268Z,69.6880
2019-04-20T06:38:46.833Z,70.4906
2019-04-20T06:39:20.301Z,59.7650
2019-04-20T06:40:31.977Z,65.2705
2019-04-20T06:41:16.507Z,70.4997
2019-04-20T06:42:08.429Z,61.9028
2019-04-20T06:42:39.708Z,72.9992
2019-04-20T06:43:40.982Z,68.6091
2019-04-20T06:44:32.260Z,62.5284
2019-04-20T06:45:27.719Z,70.2571
2019-04-20T06:46:20.244Z,72.3888
2019-04-20T06:48:01.035Z,63.3173
2019-04-20T06:48:59.248Z,73.4737
2019-04-20T06:49:36.816Z,71.0124
2019-04-20T06:50:29.159Z,68.4169
2019-04-20T06:51:23.364Z,65.0507
2019-04-20T06:52:23.145Z,68.8136
2019-04-20T06:53:12.925Z,68.2017
2019-04-20T06:53:49.645Z,72.3293
2019-04-20T06:54:48.726Z,76.3226
2019-04-20T06:55:43.006Z,72.2652
2019-04-20T06:56:29.403Z,65.2354
2019-04-20T06:57:25.580Z,72.9564
2019-04-20T06:58:31.903Z,72.0134
2019-04-20T06:59:12.523Z,62.1805
2019-04-20T07:00:01.220Z,58.6694
2019-04-20T07:00:46.462Z,60.4746
2019-04-20T07:01:48.969Z,59.2248
2019-04-20T07:02:38.650Z,59.6262
2019-04-20T07:03:36.079Z,60.2625
2019-04-20T07:04:33.533Z,61.1017
2019-04-20T07:05:18.965Z,61.6465
2019-04-20T07:06:16.854Z,63.8193
2019-04-20T07:06:56.588Z,63.7201
2019-04-20T07:07:43.352Z,62.4048
2019-04-20T07:08:56.647Z,57.9507
2019-04-20T07:09:31.124Z,62.6108
2019-04-20T07:10:19.515Z,58.6435
2019-04-20T07:11:11.358Z,58.1384
2019-04-20T07:11:59.499Z,59.5941
2019-04-20T07:12:46.960Z,65.3620
2019-04-20T07:13:37.405Z,57.1694
2019-04-20T07:14:19.128Z,58.4466
2019-04-20T07:15:16.316Z,59.3103
2019-04-20T07:16:15.836Z,57.4350
2019-04-20T07:17:10.733Z,57.9873
2019-04-20T07:17:57.023Z,55.5474
2019-04-20T07:18:50.922Z,53.3288
2019-04-20T07:19:36.254Z,56.1059
2019-04-20T07:20:27.813Z,62.8077
2019-04-20T07:21:37.502Z,61.2711
2019-04-20T07:22:25.296Z,55.3201
2019-04-20T07:23:18.432Z,60.7034
2019-04-20T07:24:03.564Z,61.4435
2019-04-20T07:24:54.796Z,57.3510
2019-04-20T07:25:42.228Z,58.6572
2019-04-20T07:26:37.270Z,53.6522
2019-04-20T07:27:23.965Z,56.3134
2019-04-20T07:28:19.697Z,53.1853
2019-04-20T07:29:13.592Z,56.5957
2019-04-20T07:29:58.952Z,53.7530
2019-04-20T07:30:45.406Z,57.1420
2019-04-20T07:31:39.347Z,53.4615
2019-04-20T07:32:38.781Z,61.6220
2019-04-20T07:33:28.348Z,55.0683
2019-04-20T07:34:15.836Z,53.8491
2019-04-20T07:35:09.817Z,54.3862
2019-04-20T07:35:56.218Z,53.5378
2019-04-20T07:37:04.856Z,53.7713
2019-04-20T07:38:41.834Z,55.8679
2019-04-20T07:39:28.079Z,54.7433
2019-04-20T07:40:23.170Z,55.8633
2019-04-20T07:41:12.938Z,55.1095
2019-04-20T07:42:10.787Z,54.8837
2019-04-20T07:42:57.179Z,55.5337
2019-04-20T07:43:52.918Z,56.0693
2019-04-20T07:44:42.553Z,58.9548
2019-04-20T07:45:30.861Z,54.3404
2019-04-20T07:46:37.541Z,54.8440
2019-04-20T07:47:23.713Z,54.4259
2019-04-20T07:48:54.303Z,55.0576
2019-04-20T07:49:46.991Z,57.1588
2019-04-20T07:50:32.245Z,55.1095
2019-04-20T07:51:17.347Z,56.6156
2019-04-20T07:52:01.658Z,54.0520
2019-04-20T07:53:01.510Z,56.3912
2019-04-20T07:53:59.503Z,56.1852
2019-04-20T07:55:12.179Z,55.4971
2019-04-20T07:55:58.128Z,54.8806
2019-04-20T07:56:37.659Z,56.2631
2019-04-20T07:57:26.694Z,57.6776
2019-04-20T07:58:13.323Z,60.2167
2019-04-20T07:58:55.220Z,57.2061
2019-04-20T08:00:01.141Z,55.3292
2019-04-20T08:01:02.551Z,55.6710
2019-04-20T08:01:56.123Z,55.9289
2019-04-20T08:02:45.058Z,55.9731
2019-04-20T08:03:33.783Z,56.4355
2019-04-20T08:04:20.873Z,56.4004
2019-04-20T08:05:08.491Z,56.0433
2019-04-20T08:05:57.269Z,56.0739
2019-04-20T08:06:45.434Z,56.2264
2019-04-20T08:07:39.167Z,55.9106
2019-04-20T08:08:32.661Z,55.3979
2019-04-20T08:09:21.989Z,55.9289
2019-04-20T08:10:06.368Z,54.2351
2019-04-20T08:11:12.362Z,55.7717
2019-04-20T08:12:14.199Z,54.8852
2019-04-20T08:13:02.239Z,59.5941
2019-04-20T08:13:51.211Z,54.9447
2019-04-20T08:14:46.801Z,59.4202
2019-04-20T08:15:42.742Z,55.4025
2019-04-20T08:16:33.595Z,54.3587
2019-04-20T08:17:21.317Z,54.4030
2019-04-20T08:18:08.845Z,55.8129
2019-04-20T08:18:59.469Z,54.8806
2019-04-20T08:19:48.483Z,55.0027
2019-04-20T08:20:41.572Z,58.9456
2019-04-20T08:21:35.174Z,55.2590
2019-04-20T08:22:26.758Z,54.5037
2019-04-20T08:23:17.217Z,53.9055
2019-04-20T08:24:57.681Z,54.5785
2019-04-20T08:25:44.561Z,54.4854
2019-04-20T08:26:31.099Z,54.5541
2019-04-20T08:27:17.941Z,54.9706
2019-04-20T08:28:13.560Z,55.6985
2019-04-20T08:29:03.347Z,54.2672
2019-04-20T08:29:59.022Z,53.2448
2019-04-20T08:30:58.236Z,53.0449
2019-04-20T08:31:46.233Z,54.4625
2019-04-20T08:33:35.017Z,51.8639
2019-04-20T08:34:33.640Z,50.9392
2019-04-20T08:35:23.919Z,54.9722
2019-04-20T08:36:11.872Z,52.2347
2019-04-20T08:37:01.407Z,51.8486
2019-04-20T08:38:14.885Z,52.0363
2019-04-20T08:39:45.122Z,56.4004
2019-04-20T08:40:31.408Z,51.5206
2019-04-20T08:41:17.939Z,52.3857
2019-04-20T08:42:10.192Z,52.9885
2019-04-20T08:43:11.929Z,54.4076
2019-04-20T08:45:04.174Z,51.0399
2019-04-20T08:45:41.702Z,52.2805
2019-04-20T08:46:34.415Z,51.3924
2019-04-20T08:47:27.385Z,51.2673
2019-04-20T08:48:17.337Z,50.1564
2019-04-20T08:49:08.374Z,50.7240
2019-04-20T08:50:03.811Z,49.8909
2019-04-20T08:50:50.667Z,49.8527
2019-04-20T08:52:55.634Z,51.6121
2019-04-20T08:53:27.637Z,51.2779
2019-04-20T08:54:14.127Z,49.5979
2019-04-20T08:55:04.974Z,51.0063
2019-04-20T08:55:50.091Z,50.2556
2019-04-20T08:56:36.001Z,53.2677
2019-04-20T08:57:13.410Z,50.0450
2019-04-20T08:58:00.012Z,48.8060
2019-04-20T08:58:46.382Z,49.4179
2019-04-20T08:59:35.052Z,53.2280
2019-04-20T09:00:29.311Z,49.6742
2019-04-20T09:01:20.226Z,54.1253
2019-04-20T09:02:09.013Z,48.3146
2019-04-20T09:03:06.737Z,49.5018
2019-04-20T09:04:00.199Z,48.8090
2019-04-20T09:04:49.037Z,49.2439
2019-04-20T09:05:42.464Z,51.2871
2019-04-20T09:06:36.463Z,50.7958
2019-04-20T09:07:20.234Z,48.2368
2019-04-20T09:08:14.632Z,48.8518
2019-04-20T09:09:20.704Z,48.7465
2019-04-20T09:10:16.646Z,47.2084
2019-04-20T09:11:04.237Z,50.2113
2019-04-20T09:11:54.282Z,49.3675
2019-04-20T09:12:40.792Z,47.6555
2019-04-20T09:13:26.954Z,47.4784
2019-04-20T09:14:09.345Z,47.0848
2019-04-20T09:14:57.327Z,46.5309
2019-04-20T09:15:44.736Z,47.1488
2019-04-20T09:16:40.901Z,45.8656
2019-04-20T09:17:27.218Z,48.6870
2019-04-20T09:18:22.052Z,45.8839
2019-04-20T09:19:09.411Z,46.9780
2019-04-20T09:20:04.710Z,47.2114
2019-04-20T09:20:55.841Z,46.6392
2019-04-20T09:21:48.302Z,49.4881
2019-04-20T09:22:40.879Z,47.8340
2019-04-20T09:23:36.568Z,45.4810
2019-04-20T09:24:38.175Z,45.3086
2019-04-20T09:25:46.867Z,45.5055
2019-04-20T09:26:16.182Z,47.7211
2019-04-20T09:27:04.541Z,45.9495
2019-04-20T09:27:50.188Z,47.0893
2019-04-20T09:28:40.546Z,43.7781
2019-04-20T09:29:35.750Z,44.4923
2019-04-20T09:30:30.621Z,47.7012
2019-04-20T09:31:22.651Z,46.9062
2019-04-20T09:32:20.898Z,50.4387
2019-04-20T09:33:09.844Z,43.7003
2019-04-20T09:34:01.517Z,45.3849
2019-04-20T09:34:54.342Z,46.9795
2019-04-20T09:35:45.880Z,43.7369
2019-04-20T09:36:35.289Z,45.8473
2019-04-20T09:37:27.893Z,43.7888
2019-04-20T09:38:15.512Z,43.9979
2019-04-20T09:39:01.083Z,44.7684
2019-04-20T09:40:10.935Z,43.4485
2019-04-20T09:40:50.771Z,45.9342
2019-04-20T09:41:50.784Z,43.8163
2019-04-20T09:42:18.327Z,42.4598
2019-04-20T09:43:04.707Z,44.7257
2019-04-20T09:43:52.480Z,42.3972
2019-04-20T09:44:42.669Z,44.3183
2019-04-20T09:45:38.200Z,42.3240
2019-04-20T09:46:24.277Z,42.7771
2019-04-20T09:47:12.340Z,43.6973
2019-04-20T09:48:00.561Z,44.5747
2019-04-20T09:48:55.702Z,43.5233
2019-04-20T09:49:54.127Z,42.9145
2019-04-20T09:50:56.101Z,43.8575
2019-04-20T09:51:40.070Z,43.6866
2019-04-20T09:52:29.110Z,44.2145
2019-04-20T09:53:24.808Z,44.4694
2019-04-20T09:54:18.630Z,44.0864
2019-04-20T09:55:07.842Z,42.5345
2019-04-20T09:56:01.928Z,41.4893
2019-04-20T09:56:55.593Z,46.0136
2019-04-20T09:57:46.709Z,42.4552
2019-04-20T09:58:31.638Z,42.6566
2019-04-20T09:59:28.387Z,42.2141
2019-04-20T10:00:19.319Z,45.3544
2019-04-20T10:01:08.423Z,42.1851
2019-04-20T10:01:50.814Z,45.5604
2019-04-20T10:02:39.415Z,49.2210
2019-04-20T10:03:27.162Z,43.1617
2019-04-20T10:04:13.276Z,42.5254
2019-04-20T10:05:00.279Z,41.3260
2019-04-20T10:05:47.602Z,40.8408
2019-04-20T10:06:36.146Z,41.8158
2019-04-20T10:07:26.152Z,42.2217
2019-04-20T10:08:15.421Z,42.9877
2019-04-20T10:09:03.865Z,41.8799
2019-04-20T10:09:52.078Z,39.7604
2019-04-20T10:10:42.665Z,41.4298
2019-04-20T10:11:31.840Z,38.8983
2019-04-20T10:12:19.641Z,42.3240
2019-04-20T10:13:07.347Z,39.7238
2019-04-20T10:13:54.383Z,41.1292
2019-04-20T10:14:42.436Z,40.0381
2019-04-20T10:15:30.958Z,43.7736
2019-04-20T10:16:17.799Z,41.5045
2019-04-20T10:17:05.690Z,39.0555
2019-04-20T10:17:53.942Z,41.9883
2019-04-20T10:18:45.486Z,38.8891
2019-04-20T10:19:35.610Z,41.5946
2019-04-20T10:20:29.796Z,44.3091
2019-04-20T10:21:15.888Z,39.2569
2019-04-20T10:22:02.562Z,41.5686
2019-04-20T10:22:48.911Z,42.0081
2019-04-20T10:23:36.529Z,36.4950
2019-04-20T10:24:24.293Z,36.2280
2019-04-20T10:25:10.878Z,39.0768
2019-04-20T10:25:58.442Z,38.6069
2019-04-20T10:26:46.294Z,36.8109
2019-04-20T10:27:32.782Z,38.2864
2019-04-20T10:28:19.473Z,40.9400
2019-04-20T10:29:05.791Z,40.1266
2019-04-20T10:29:53.467Z,39.6765
2019-04-20T10:30:40.878Z,40.1724
2019-04-20T10:31:28.510Z,41.0819
2019-04-20T10:32:16.045Z,39.1959
2019-04-20T10:33:05.664Z,40.2121
2019-04-20T10:33:53.466Z,40.2991
2019-04-20T10:34:40.926Z,39.4080
2019-04-20T10:35:27.594Z,39.6002
2019-04-20T10:36:15.315Z,39.5407
2019-04-20T10:37:01.739Z,41.9120
2019-04-20T10:37:49.325Z,39.7284